Nearby METAR Reports

 

EGSS - Stansted Airport, United Kingdom
Distance from station: NW 15mi, 24km
Updated: 22/09/2021 11:20
Clear
Clear
 Wind from SW
Wind: SW 10 mph , 17 km/h
Temperature: 19°C
Dew Point: 13°C
Humidity: 68%
Barometer: 1028 hPa
Clouds: Clear
Visibility: 6 miles , 10 km
2021/09/22 10:20 EGSS 221020Z AUTO 23009KT 200V260 9999 NCD 19/13 Q1028
EGMC - Southend-On-Sea, United Kingdom
Distance from station: SE 15mi, 25km
Updated: 22/09/2021 11:20
Clear
Clear
 Wind from WSW
Wind: WSW 8 mph , 13 km/h
Temperature: 20°C
Dew Point: 12°C
Humidity: 60%
Barometer: 1028 hPa
Summary: Clear
Visibility: greater than 7 miles , 10 km
2021/09/22 10:20 EGMC 221020Z 24007KT CAVOK 20/12 Q1028
 
EGLC - London City Airp, United Kingdom
Distance from station: SW 24mi, 39km
Updated: 22/09/2021 11:20
Clear
Clear
 Wind from WSW
Wind: WSW 6 mph , 9 km/h
Temperature: 19°C
Dew Point: 12°C
Humidity: 64%
Barometer: 1029 hPa
Clouds: Clear
Visibility: 6 miles , 10 km
2021/09/22 10:20 EGLC 221020Z AUTO 25005KT 200V290 9999 NCD 19/12 Q1029
EGUW - Wattisham Raf, United Kingdom
Distance from station: NE 34mi, 54km
Updated: 22/09/2021 10:50
Clear
Clear
 Wind from WSW
Wind: WSW 9 mph , 15 km/h
Temperature: 19°C
Dew Point: 13°C
Humidity: 68%
Barometer: 1028 hPa
Summary: Clear
Visibility: greater than 7 miles , 10 km
2021/09/22 09:50 EGUW 220950Z 25008KT CAVOK 19/13 Q1028 NOSIG RMK BLU BLU
 
EGGW - Luton Airport, United Kingdom
Distance from station: WNW 37mi, 59km
Updated: 22/09/2021 11:20
Clear
Clear
 Wind from WSW
Wind: WSW 12 mph , 19 km/h
Temperature: 19°C
Dew Point: 13°C
Humidity: 68%
Barometer: 1028 hPa
Clouds: Clear
Visibility: 6 miles , 10 km
2021/09/22 10:20 EGGW 221020Z AUTO 25010KT 9999 NCD 19/13 Q1028
EGWU - Northolt Raf, United Kingdom
Distance from station: WSW 40mi, 64km
Updated: 22/09/2021 11:22
Few Clouds
Few Clouds
 Wind from WSW
Wind: WSW 8 mph , 13 km/h
Temperature: 19°C
Dew Point: 12°C
Humidity: 64%
Barometer: 1028 hPa
Clouds: Few Clouds
Visibility: 6 miles , 10 km
Cloud details: Few Clouds 732 m
2021/09/22 10:22 EGWU 221022Z 24007KT 9999 FEW024 19/12 Q1028 NOSIG